Monday, August 31, 2015, 4:46 AM EDT

KIPT, Williamsport-lycoming County

Location: Montoursville, PA, United States Lat: 41.25
Local Time: 4:46 AM EDT ( 8:46 GMT) Lon: -76.917
Time Zone: US/Eastern Elev: 528 ft

Show me the last for .
Show Decoded

2015-08-31 04:20 METAR KIPT 310820Z AUTO 01003KT 2SM BR OVC003 21/19 A3005 RMK AO2 T02060194 =
2015-08-31 04:07 METAR KIPT 310807Z AUTO 36004KT 1 3/4SM BR OVC003 21/19 A3005 RMK AO2 T02060194
                 =
2015-08-31 03:54 METAR KIPT 310754Z AUTO 36003KT 4SM BR OVC003 21/19 A3004 RMK AO2 SLP169
                 T02060194 =
2015-08-31 03:47 METAR KIPT 310747Z AUTO 00000KT 2 1/2SM BR OVC003 21/19 A3004 RMK AO2 T02060194
                 =
2015-08-31 03:21 METAR KIPT 310721Z AUTO 35003KT 4SM BR OVC003 21/19 A3005 RMK AO2 T02060194 =
2015-08-31 03:04 METAR KIPT 310704Z AUTO 33003KT 2SM BR OVC004 21/19 A3005 RMK AO2 CIG 002V006
                 T02060194 =
2015-08-31 02:54 METAR KIPT 310654Z AUTO 32003KT 4SM BR OVC005 21/19 A3005 RMK AO2 SLP171
                 T02110194 =
2015-08-31 02:21 METAR KIPT 310621Z AUTO 00000KT 6SM BR OVC005 21/20 A3005 RMK AO2 T02110200 =
2015-08-31 01:54 METAR KIPT 310554Z AUTO 35004KT 7SM OVC004 22/20 A3005 =
2015-08-31 00:54 METAR KIPT 310454Z AUTO 35003KT 9SM OVC005 22/20 A3006 RMK AO2 SLP176 T02170200
                 403060156 =
2015-08-30 23:54 METAR KIPT 310354Z AUTO 00000KT 8SM OVC005 22/20 A3006 RMK AO2 SLP175 T02170200
                 =
2015-08-30 23:39 METAR KIPT 310339Z AUTO 00000KT 9SM OVC005 22/20 A3006 RMK AO2 T02220200 =
2015-08-30 22:54 METAR KIPT 310254Z AUTO 00000KT 9SM OVC006 22/20 A3006 RMK AO2 SLP176 60000
                 T02220200 50009 =
2015-08-30 22:22 METAR KIPT 310222Z 00000KT 9SM OVC006 22/21 A3006 RMK AO2 T02220206 =
2015-08-30 22:08 METAR KIPT 310208Z 00000KT 8SM BKN005 BKN065 OVC080 22/21 A3006 RMK AO2
                 T02220206 =
2015-08-30 21:54 METAR KIPT 310154Z 00000KT 8SM FEW004 SCT060 BKN075 22/21 A3006 RMK AO2 SLP177
                 T02220206 =
2015-08-30 21:40 METAR KIPT 310140Z 34004KT 7SM FEW004 SCT060 22/21 A3006 RMK AO2 T02220206 =
2015-08-30 20:54 METAR KIPT 310054Z 00000KT 7SM BKN060 BKN120 22/21 A3005 RMK AO2 LTG DSNT E
                 RAE2356 SLP174 P0000 T02220211 =
2015-08-30 19:54 METAR KIPT 302354Z 07003KT 10SM -RA FEW055 BKN085 23/21 A3003 RMK AO2 RAB05
                 SLP168 P0025 60025 T02280206 10306 20228 53007 =
2015-08-30 19:39 METAR KIPT 302339Z 12004KT 5SM -RA BR SCT042 BKN060 OVC095 23/21 A3004 RMK AO2
                 RAB05 P0025 T02280206 =
2015-08-30 19:16 METAR KIPT 302316Z 26010G18KT 1 3/4SM +RA SCT038 OVC055 23/20 A3004 RMK AO2
                 RAB05 PRESRR P0003 T02330200 =
2015-08-30 18:54 METAR KIPT 302254Z 00000KT 10SM BKN065 OVC080 26/21 A3001 =
2015-08-30 17:54 METAR KIPT 302154Z 22004KT 10SM CLR 29/17 A3001 RMK AO2 SLP158 T02940172 =
2015-08-30 16:54 METAR KIPT 302054Z 25006KT 10SM FEW120 30/17 A3001 RMK AO2 SLP160 60000
                 T03000172 56017 =
2015-08-30 15:54 METAR KIPT 301954Z VRB03KT 10SM CLR 29/18 A3002 RMK AO2 SLP164 T02940178 =
2015-08-30 14:54 METAR KIPT 301854Z 01007KT 10SM FEW039 BKN110 29/18 A3005 =
2015-08-30 13:54 METAR KIPT 301754Z 00000KT 10SM BKN085 27/18 A3006 RMK AO2 SLP177 60000
                 T02720178 10283 20172 58017 =
2015-08-30 12:54 METAR KIPT 301654Z 24005KT 10SM FEW110 27/17 A3008 RMK AO2 SLP184 T02670167 =
2015-08-30 11:54 METAR KIPT 301554Z 28006KT 10SM CLR 25/16 A3010 RMK AO2 SLP191 T02500161 =
2015-08-30 10:54 METAR KIPT 301454Z VRB03KT 10SM CLR 24/16 A3012 RMK AO2 SLP195 60000 T02390161
                 50002 =
2015-08-30 09:54 METAR KIPT 301354Z 26004KT 10SM FEW110 21/16 A3012 RMK AO2 RAB23E35 SLP197 P0000
                 T02110161 =
2015-08-30 08:54 METAR KIPT 301254Z 24004KT 4SM HZ SCT005 SCT080 19/16 A3011 RMK AO2 SLP195
                 T01890161 =
2015-08-30 08:45 METAR KIPT 301245Z 24004KT 4SM BR SCT005 BKN080 18/16 A3011 RMK AO2 T01830161 =
2015-08-30 07:54 METAR KIPT 301154Z 00000KT 4SM BR BKN005 17/16 A3011 =
2015-08-30 07:21 METAR KIPT 301121Z 00000KT 7SM BKN005 17/15 A3011 RMK AO2 T01670150 =
2015-08-30 07:12 METAR KIPT 301112Z 00000KT 7SM SCT005 17/14 A3010 RMK AO2 T01670144 =
2015-08-30 06:54 METAR KIPT 301054Z 00000KT 7SM FEW100 16/14 A3010 RMK AO2 SLP190 T01610144 =
2015-08-30 05:54 METAR KIPT 300954Z AUTO 00000KT 10SM SCT065 16/14 A3008 RMK AO2 SLP183 T01610144
                 =
2015-08-30 04:54 METAR KIPT 300854Z AUTO 00000KT 9SM FEW065 SCT085 16/14 A3008 RMK AO2 SLP181
                 T01610144 56006 =

Support USWX by starting your Amazon purchase here.